Aviation Digital Data Service (ADDS)

Output produced by METARs form (2242 UTC 26 February 2020)
found at http://www.aviationweather.gov/metar/data/
 
Forecast for: COR
Text: TAF COR OJAI 261700Z 2618/2724 28008KT 4000 BR SCT030
Forecast period: 1800 to 2000 UTC 26 February 2020
Forecast type: FROM: standard forecast or significant change
Winds: from the W (280 degrees) at 9 MPH (8 knots; 4.1 m/s)
Visibility: 2.49 miles (4.01 km)
Ceiling: at least 12,000 feet AGL
Clouds: scattered clouds at 3000 feet AGL
Weather: BR  (mist)
Text: BECMG 2620/2622 VRB02KT 0800 FG SCT015
Forecast period: 2000 UTC 26 February 2020 to 0600 UTC 27 February 2020
Forecast type: BECOMING: Conditions expected to become as follows by 2200 UTC 26 February 2020
Winds: variable direction winds at 2 MPH (2 knots; 1.0 m/s)
Visibility: 0.50 miles (0.80 km)
Ceiling: at least 12,000 feet AGL
Clouds: scattered clouds at 1500 feet AGL
Weather: FG  (fog)
Text: BECMG 2706/2708 16008KT 5000 HZ NSC
Forecast period: 0600 UTC 27 February 2020 to 0000 UTC 28 February 2020
Forecast type: BECOMING: Conditions expected to become as follows by 0800 UTC 27 February 2020
Winds: from the SSE (160 degrees) at 9 MPH (8 knots; 4.1 m/s)
Visibility: 3 miles (5 km)
Ceiling: unknown
Clouds: missing
Weather: HZ  (haze)